createdAt,value
2022-11-03T00:01:51.430Z,-2.29
2022-11-03T00:04:20.601Z,-2.22
2022-11-03T00:06:49.882Z,-2.28
2022-11-03T00:09:18.592Z,-2.22
2022-11-03T00:11:47.539Z,-2.32
2022-11-03T00:14:15.439Z,-2.43
2022-11-03T00:16:43.710Z,-2.35
2022-11-03T00:19:11.913Z,-2.31
2022-11-03T00:21:39.498Z,-2.32
2022-11-03T00:24:07.305Z,-2.18
2022-11-03T00:26:36.279Z,-2.42
2022-11-03T00:29:11.590Z,-2.16
2022-11-03T00:31:40.773Z,-2.15
2022-11-03T00:34:09.269Z,-2.18
2022-11-03T00:36:48.858Z,-2.21
2022-11-03T00:39:17.071Z,-2.01
2022-11-03T00:41:44.689Z,-2.08
2022-11-03T00:44:13.651Z,-1.84
2022-11-03T00:46:41.706Z,-1.83
2022-11-03T00:49:12.443Z,-1.94
2022-11-03T00:51:40.164Z,-1.72
2022-11-03T00:54:08.618Z,-1.73
2022-11-03T00:56:40.779Z,-1.84
2022-11-03T00:59:09.693Z,-1.68
2022-11-03T01:01:45.381Z,-1.66
2022-11-03T01:04:34.787Z,-2.07
2022-11-03T01:07:06.360Z,-2.16
2022-11-03T01:09:38.501Z,-2.02
2022-11-03T01:12:17.156Z,-2.17
2022-11-03T01:14:45.224Z,-2.11
2022-11-03T01:17:13.656Z,-2.00
2022-11-03T01:19:44.808Z,-1.86
2022-11-03T01:22:13.318Z,-1.92
2022-11-03T01:24:43.941Z,-1.86
2022-11-03T01:27:13.486Z,-1.92
2022-11-03T01:29:42.089Z,-1.90
2022-11-03T01:32:10.419Z,-1.87
2022-11-03T01:34:38.446Z,-1.67
2022-11-03T01:37:06.606Z,-1.67
2022-11-03T01:39:34.507Z,-1.87
2022-11-03T01:42:05.426Z,-1.83
2022-11-03T01:44:37.345Z,-1.64
2022-11-03T01:47:11.121Z,-1.79
2022-11-03T01:49:49.216Z,-1.71
2022-11-03T01:52:26.381Z,-1.67
2022-11-03T01:55:00.081Z,-1.55
2022-11-03T01:57:36.900Z,-2.07
2022-11-03T02:00:08.739Z,-2.15
2022-11-03T02:02:40.707Z,-2.11
2022-11-03T02:05:13.241Z,-1.98
2022-11-03T02:07:53.932Z,-2.10
2022-11-03T02:10:23.088Z,-1.93
2022-11-03T02:12:51.167Z,-2.05
2022-11-03T02:15:21.823Z,-2.08
2022-11-03T02:17:54.250Z,-2.09
2022-11-03T02:20:29.982Z,-1.85
2022-11-03T02:22:57.559Z,-2.10
2022-11-03T02:25:41.852Z,-2.21
2022-11-03T02:28:14.009Z,-2.32
2022-11-03T02:30:48.485Z,-2.37
2022-11-03T02:33:39.223Z,-2.35
2022-11-03T02:36:12.270Z,-2.13
2022-11-03T02:38:54.559Z,-2.38
2022-11-03T02:41:23.499Z,-2.33
2022-11-03T02:43:51.472Z,-2.29
2022-11-03T02:46:19.873Z,-2.34
2022-11-03T02:48:48.234Z,-2.33
2022-11-03T02:51:16.219Z,-2.57
2022-11-03T02:53:53.299Z,-2.54
2022-11-03T02:56:22.323Z,-2.40
2022-11-03T02:58:53.192Z,-2.22
2022-11-03T03:01:52.943Z,-2.32
2022-11-03T03:04:20.656Z,-2.51
2022-11-03T03:06:56.148Z,-2.51
2022-11-03T03:09:28.866Z,-2.50
2022-11-03T03:11:59.514Z,-2.54
2022-11-03T03:14:38.463Z,-2.51
2022-11-03T03:17:13.524Z,-2.48
2022-11-03T03:19:41.108Z,-2.48
2022-11-03T03:22:38.128Z,-2.48
2022-11-03T03:25:17.933Z,-2.44
2022-11-03T03:27:53.099Z,-2.50
2022-11-03T03:30:20.868Z,-2.32
2022-11-03T03:32:52.949Z,-2.25
2022-11-03T03:35:23.371Z,-2.40
2022-11-03T03:37:53.770Z,-2.46
2022-11-03T03:40:23.531Z,-2.49
2022-11-03T03:42:52.206Z,-2.52
2022-11-03T03:45:21.085Z,-2.35
2022-11-03T03:47:49.958Z,-2.37
2022-11-03T03:50:20.727Z,-2.25
2022-11-03T03:52:49.584Z,-2.54
2022-11-03T03:55:18.655Z,-2.54
2022-11-03T03:57:46.735Z,-2.54
2022-11-03T04:00:16.358Z,-2.45
2022-11-03T04:02:44.401Z,-2.47
2022-11-03T04:05:12.093Z,-2.59
2022-11-03T04:07:48.857Z,-2.58
2022-11-03T04:10:21.285Z,-2.49
2022-11-03T04:13:10.441Z,-2.49
2022-11-03T04:15:53.529Z,-2.62
2022-11-03T04:18:40.665Z,-2.42
2022-11-03T04:21:29.223Z,-2.61
2022-11-03T04:23:57.047Z,-2.51
2022-11-03T04:26:25.169Z,-2.71
2022-11-03T04:28:53.460Z,-2.48
2022-11-03T04:31:24.213Z,-2.46
2022-11-03T04:33:54.449Z,-2.57
2022-11-03T04:36:23.079Z,-2.47
2022-11-03T04:38:51.551Z,-2.12
2022-11-03T04:41:28.722Z,-2.16
2022-11-03T04:43:59.595Z,-2.10
2022-11-03T04:46:28.596Z,-2.37
2022-11-03T04:49:01.097Z,-2.35
2022-11-03T04:51:31.538Z,-2.15
2022-11-03T04:54:02.801Z,-2.43
2022-11-03T04:56:31.103Z,-2.29
2022-11-03T04:58:58.842Z,-2.16
2022-11-03T05:01:27.855Z,-2.22
2022-11-03T05:03:56.288Z,-2.20
2022-11-03T05:06:26.831Z,-2.18
2022-11-03T05:08:59.036Z,-2.22
2022-11-03T05:11:32.574Z,-2.47
2022-11-03T05:14:05.038Z,-2.47
2022-11-03T05:16:33.154Z,-2.39
2022-11-03T05:19:01.003Z,-2.51
2022-11-03T05:21:29.431Z,-2.38
2022-11-03T05:24:06.722Z,-2.35
2022-11-03T05:26:35.629Z,-2.39
2022-11-03T05:29:09.776Z,-2.48
2022-11-03T05:31:37.561Z,-2.34
2022-11-03T05:37:36.392Z,-2.17
2022-11-03T05:40:19.928Z,-1.95
2022-11-03T05:43:12.149Z,-1.98
2022-11-03T05:45:40.567Z,-2.09
2022-11-03T05:48:14.827Z,-2.25
2022-11-03T05:50:47.027Z,-2.27
2022-11-03T05:53:27.424Z,-2.33
2022-11-03T05:55:56.098Z,-2.27
2022-11-03T05:58:29.521Z,-2.26
2022-11-03T06:04:24.787Z,-1.91
2022-11-03T06:06:59.281Z,-2.21
2022-11-03T06:09:27.747Z,-2.05
2022-11-03T06:11:57.247Z,-1.49
2022-11-03T06:14:25.865Z,-1.74
2022-11-03T06:16:59.864Z,-2.00
2022-11-03T06:19:29.765Z,-1.77
2022-11-03T06:21:59.421Z,-1.57
2022-11-03T06:24:29.450Z,-1.68
2022-11-03T06:26:58.713Z,-1.88
2022-11-03T06:29:26.578Z,-1.52
2022-11-03T06:31:56.558Z,-1.50
2022-11-03T06:34:42.966Z,-1.77
2022-11-03T06:37:19.932Z,-1.36
2022-11-03T06:39:48.754Z,-1.40
2022-11-03T06:42:20.064Z,-2.04
2022-11-03T06:44:49.944Z,-1.47
2022-11-03T06:47:24.757Z,-1.38
2022-11-03T06:49:54.308Z,-1.56
2022-11-03T06:52:32.040Z,-1.45
2022-11-03T06:55:13.690Z,-1.83
2022-11-03T06:57:46.008Z,-1.75
2022-11-03T07:00:40.172Z,-1.46
2022-11-03T07:03:24.285Z,-1.71
2022-11-03T07:05:56.153Z,-1.80
2022-11-03T07:08:25.553Z,-1.56
2022-11-03T07:11:16.513Z,-1.49
2022-11-03T07:13:45.705Z,-1.35
2022-11-03T07:16:19.554Z,-1.48
2022-11-03T07:18:47.960Z,-1.34
2022-11-03T07:21:22.834Z,-1.42
2022-11-03T07:23:50.646Z,-1.14
2022-11-03T07:26:18.968Z,-1.39
2022-11-03T07:28:48.709Z,-1.39
2022-11-03T07:31:26.381Z,-1.64
2022-11-03T07:33:58.995Z,-1.56
2022-11-03T07:36:29.624Z,-1.51
2022-11-03T07:38:59.845Z,-1.35
2022-11-03T07:41:32.864Z,-1.04
2022-11-03T07:44:02.985Z,-1.34
2022-11-03T07:46:31.278Z,-1.53
2022-11-03T07:48:59.480Z,-1.34
2022-11-03T07:51:35.577Z,-1.14
2022-11-03T07:54:10.553Z,-0.87
2022-11-03T07:56:40.550Z,-0.71
2022-11-03T07:59:11.760Z,-1.27
2022-11-03T08:01:44.503Z,-0.72
2022-11-03T08:04:23.092Z,-1.08
2022-11-03T08:06:50.732Z,-0.88
2022-11-03T08:09:19.269Z,-0.46
2022-11-03T08:11:47.342Z,-0.74
2022-11-03T08:14:15.027Z,-1.14
2022-11-03T08:16:43.050Z,-1.46
2022-11-03T08:19:10.635Z,-1.44
2022-11-03T08:21:38.303Z,-1.79
2022-11-03T08:24:06.673Z,-1.67
2022-11-03T08:26:34.239Z,-1.76
2022-11-03T08:29:01.888Z,-1.68
2022-11-03T08:31:29.785Z,-1.56
2022-11-03T08:33:57.478Z,-1.34
2022-11-03T08:36:25.152Z,-1.35
2022-11-03T08:38:53.104Z,-1.20
2022-11-03T08:41:20.695Z,-1.36
2022-11-03T08:43:48.262Z,-1.06
2022-11-03T08:46:17.964Z,-1.17
2022-11-03T08:48:49.820Z,-0.81
2022-11-03T08:51:20.095Z,-0.70
2022-11-03T08:53:50.902Z,-1.12
2022-11-03T08:56:21.956Z,-1.38
2022-11-03T08:58:55.767Z,-1.55
2022-11-03T09:01:29.310Z,-1.44
2022-11-03T09:03:57.724Z,-1.39
2022-11-03T09:06:25.832Z,-1.24
2022-11-03T09:11:36.119Z,-1.11
2022-11-03T09:14:04.497Z,-1.20
2022-11-03T09:16:32.062Z,-1.26
2022-11-03T09:19:00.047Z,-1.04
2022-11-03T09:21:33.570Z,-0.76
2022-11-03T09:24:01.468Z,-0.52
2022-11-03T09:29:17.689Z,-1.20
2022-11-03T09:31:46.079Z,-1.12
2022-11-03T09:34:20.976Z,-0.91
2022-11-03T09:36:53.079Z,-0.58
2022-11-03T09:39:21.227Z,-1.08
2022-11-03T09:42:01.672Z,-0.88
2022-11-03T09:44:29.713Z,-0.46
2022-11-03T09:46:58.632Z,-0.62
2022-11-03T09:49:26.755Z,-0.71
2022-11-03T09:51:56.236Z,-0.79
2022-11-03T09:57:14.026Z,-0.90
2022-11-03T09:59:43.837Z,-0.92
2022-11-03T10:02:31.764Z,-0.90
2022-11-03T10:05:08.242Z,-1.04
2022-11-03T10:07:36.611Z,-0.86
2022-11-03T10:10:05.065Z,-0.41
2022-11-03T10:12:35.886Z,-0.86
2022-11-03T10:15:03.765Z,-1.00
2022-11-03T10:17:31.467Z,-0.94
2022-11-03T10:20:01.444Z,-0.87
2022-11-03T10:22:29.824Z,-1.06
2022-11-03T10:25:16.139Z,-0.97
2022-11-03T10:27:43.993Z,-0.96
2022-11-03T10:30:12.886Z,-0.67
2022-11-03T10:32:41.788Z,-0.80
2022-11-03T10:35:29.983Z,-1.06
2022-11-03T10:37:57.685Z,-0.72
2022-11-03T10:40:47.689Z,-0.87
2022-11-03T10:43:16.158Z,-0.73
2022-11-03T10:45:44.151Z,-0.90
2022-11-03T10:48:11.742Z,-1.04
2022-11-03T10:50:42.827Z,-0.94
2022-11-03T10:53:17.069Z,-0.72
2022-11-03T10:55:44.823Z,-0.96
2022-11-03T10:58:12.762Z,-1.02
2022-11-03T11:00:43.518Z,-1.13
2022-11-03T11:03:16.352Z,-1.08
2022-11-03T11:05:48.747Z,-0.98
2022-11-03T11:08:19.905Z,-1.21
2022-11-03T11:10:48.065Z,-0.99
2022-11-03T11:13:15.792Z,-0.82
2022-11-03T11:15:45.151Z,-0.74
2022-11-03T11:18:33.355Z,-0.70
2022-11-03T11:21:01.713Z,-0.78
2022-11-03T11:23:29.700Z,-0.95
2022-11-03T11:26:09.517Z,-0.78
2022-11-03T11:28:38.654Z,-1.10
2022-11-03T11:31:35.407Z,-1.01
2022-11-03T11:34:18.672Z,-0.77
2022-11-03T11:36:47.760Z,-0.98
2022-11-03T11:39:15.631Z,-0.76
2022-11-03T11:42:02.004Z,-0.75
2022-11-03T11:44:53.147Z,-0.61
2022-11-03T11:47:32.741Z,-0.95
2022-11-03T11:50:20.991Z,-1.22
2022-11-03T11:52:54.302Z,-1.17
2022-11-03T11:55:22.221Z,-1.14
2022-11-03T11:57:49.925Z,-1.18
2022-11-03T12:00:26.035Z,-1.19
2022-11-03T12:02:54.560Z,-1.23
2022-11-03T12:05:28.322Z,-1.33
2022-11-03T12:07:56.341Z,-1.33
2022-11-03T12:10:26.635Z,-1.46
2022-11-03T12:12:55.238Z,-1.36
2022-11-03T12:15:41.840Z,-1.06
2022-11-03T12:18:28.402Z,-0.83
2022-11-03T12:20:57.026Z,-1.46
2022-11-03T12:23:35.964Z,-1.53
2022-11-03T12:26:05.577Z,-1.20
2022-11-03T12:28:37.823Z,-1.52
2022-11-03T12:31:05.852Z,-1.33
2022-11-03T12:33:33.456Z,-1.54
2022-11-03T12:36:01.010Z,-1.69
2022-11-03T12:38:29.005Z,-1.40
2022-11-03T12:40:56.653Z,-1.46
2022-11-03T12:43:24.198Z,-1.58
2022-11-03T12:45:52.711Z,-1.56
2022-11-03T12:48:20.345Z,-1.44
2022-11-03T12:50:47.868Z,-1.58
2022-11-03T12:53:15.727Z,-1.43
2022-11-03T12:55:44.795Z,-1.60
2022-11-03T12:58:12.632Z,-1.69
2022-11-03T13:00:40.675Z,-1.54
2022-11-03T13:03:08.656Z,-1.33
2022-11-03T13:05:36.546Z,-1.39
2022-11-03T13:08:04.717Z,-1.68
2022-11-03T13:10:32.429Z,-1.75
2022-11-03T13:13:00.032Z,-1.79
2022-11-03T13:15:28.047Z,-1.78
2022-11-03T13:18:13.062Z,-1.83
2022-11-03T13:23:28.150Z,-1.90
2022-11-03T13:25:56.642Z,-1.87
2022-11-03T13:28:24.483Z,-1.86
2022-11-03T13:30:52.157Z,-1.99
2022-11-03T13:33:21.055Z,-1.89
2022-11-03T13:35:48.847Z,-1.96
2022-11-03T13:38:16.430Z,-2.02
2022-11-03T13:41:05.337Z,-1.88
2022-11-03T13:43:32.159Z,-1.85
2022-11-03T13:46:02.841Z,-1.76
2022-11-03T13:49:27.745Z,-1.48
2022-11-03T13:51:23.518Z,-1.65
2022-11-03T13:59:28.145Z,-1.83
2022-11-03T14:04:45.135Z,-1.48
2022-11-03T14:07:13.066Z,-1.61
2022-11-03T14:09:40.847Z,-1.70
2022-11-03T14:12:27.530Z,-1.64
2022-11-03T14:14:55.124Z,-1.82
2022-11-03T14:17:23.146Z,-1.44
2022-11-03T14:19:53.097Z,-1.28
2022-11-03T14:22:22.144Z,-1.44
2022-11-03T14:24:50.818Z,-1.39
2022-11-03T14:27:19.153Z,-1.37
2022-11-03T14:29:50.035Z,-1.46
2022-11-03T14:32:18.683Z,-1.54
2022-11-03T14:34:46.155Z,-1.38
2022-11-03T14:37:13.709Z,-1.60
2022-11-03T14:39:41.663Z,-1.78
2022-11-03T14:42:15.801Z,-1.93
2022-11-03T14:44:45.009Z,-1.97
2022-11-03T14:47:18.138Z,-1.90
2022-11-03T14:49:46.738Z,-1.86
2022-11-03T14:52:15.451Z,-1.74
2022-11-03T14:54:43.498Z,-1.86
2022-11-03T14:57:11.402Z,-1.60
2022-11-03T14:59:42.225Z,-1.69
2022-11-03T15:02:10.244Z,-1.80
2022-11-03T15:04:38.246Z,-1.78
2022-11-03T15:07:05.703Z,-1.82
2022-11-03T15:09:33.121Z,-1.54
2022-11-03T15:12:01.187Z,-1.79
2022-11-03T15:14:30.196Z,-1.69
2022-11-03T15:16:57.850Z,-1.36
2022-11-03T15:19:25.748Z,-1.32
2022-11-03T15:21:53.261Z,-1.60
2022-11-03T15:27:08.886Z,-1.77
2022-11-03T15:29:37.839Z,-1.80
2022-11-03T15:32:05.451Z,-1.86
2022-11-03T15:34:33.669Z,-1.80
2022-11-03T15:37:01.165Z,-1.66
2022-11-03T15:39:30.082Z,-1.61
2022-11-03T15:42:00.411Z,-1.61
2022-11-03T15:44:28.106Z,-1.66
2022-11-03T15:46:55.609Z,-1.77
2022-11-03T15:49:23.591Z,-1.58
2022-11-03T15:51:51.989Z,-1.52
2022-11-03T15:54:19.514Z,-1.38
2022-11-03T15:56:47.533Z,-1.42
2022-11-03T15:59:15.040Z,-1.10
2022-11-03T16:01:42.903Z,-1.26
2022-11-03T16:04:10.997Z,-1.40
2022-11-03T16:07:07.426Z,-1.29
2022-11-03T16:09:26.828Z,-1.33
2022-11-03T16:11:54.342Z,-1.26
2022-11-03T16:14:21.862Z,-1.39
2022-11-03T16:16:49.944Z,-0.98
2022-11-03T16:19:17.702Z,-1.30
2022-11-03T16:21:45.383Z,-1.11
2022-11-03T16:24:17.158Z,-1.16
2022-11-03T16:26:47.571Z,-1.40
2022-11-03T16:29:15.463Z,-1.33
2022-11-03T16:31:43.145Z,-1.16
2022-11-03T16:34:10.662Z,-1.26
2022-11-03T16:36:38.563Z,-1.27
2022-11-03T16:39:06.101Z,-1.29
2022-11-03T16:41:33.669Z,-1.37
2022-11-03T16:44:01.794Z,-1.42
2022-11-03T16:46:29.395Z,-1.24
2022-11-03T16:48:57.061Z,-1.28
2022-11-03T16:51:25.085Z,-1.30
2022-11-03T16:53:54.925Z,-1.23
2022-11-03T16:56:22.375Z,-1.12
2022-11-03T16:58:50.687Z,-1.48
2022-11-03T17:01:18.955Z,-1.22
2022-11-03T17:03:46.900Z,-1.34
2022-11-03T17:06:17.765Z,-1.34
2022-11-03T17:08:52.997Z,-1.34
2022-11-03T17:11:36.606Z,-1.25
2022-11-03T17:14:14.022Z,-1.39
2022-11-03T17:16:42.878Z,-1.29
2022-11-03T17:19:11.078Z,-1.24
2022-11-03T17:21:38.675Z,-1.42
2022-11-03T17:24:07.066Z,-1.23
2022-11-03T17:26:43.283Z,-1.24
2022-11-03T17:29:13.931Z,-1.00
2022-11-03T17:31:41.709Z,-1.21
2022-11-03T17:34:11.821Z,-1.33
2022-11-03T17:36:42.903Z,-1.25
2022-11-03T17:39:16.229Z,-1.33
2022-11-03T17:41:44.340Z,-1.39
2022-11-03T17:44:13.214Z,-1.42
2022-11-03T17:46:40.974Z,-1.36
2022-11-03T17:49:09.001Z,-1.50
2022-11-03T17:51:41.270Z,-1.58
2022-11-03T17:54:13.673Z,-1.28
2022-11-03T17:56:41.179Z,-1.13
2022-11-03T17:59:09.713Z,-1.13
2022-11-03T18:01:37.883Z,-1.36
2022-11-03T18:06:48.064Z,-1.39
2022-11-03T18:09:16.493Z,-1.24
2022-11-03T18:12:02.892Z,-1.39
2022-11-03T18:14:30.986Z,-1.25
2022-11-03T18:16:58.625Z,-1.09
2022-11-03T18:19:26.343Z,-1.37
2022-11-03T18:21:54.265Z,-1.37
2022-11-03T18:24:22.164Z,-1.25
2022-11-03T18:26:49.820Z,-1.40
2022-11-03T18:29:17.777Z,-1.42
2022-11-03T18:31:51.026Z,-1.37
2022-11-03T18:34:22.573Z,-1.50
2022-11-03T18:36:51.240Z,-1.50
2022-11-03T18:39:23.536Z,-1.56
2022-11-03T18:41:51.518Z,-1.48
2022-11-03T18:44:19.445Z,-1.40
2022-11-03T18:46:47.942Z,-1.34
2022-11-03T18:49:17.061Z,-1.59
2022-11-03T18:51:49.683Z,-1.56
2022-11-03T18:54:22.095Z,-1.67
2022-11-03T18:56:50.884Z,-1.75
2022-11-03T18:59:24.502Z,-1.39
2022-11-03T19:01:53.265Z,-1.35
2022-11-03T19:04:21.490Z,-1.55
2022-11-03T19:06:50.585Z,-1.62
2022-11-03T19:09:26.340Z,-1.62
2022-11-03T19:11:57.015Z,-1.60
2022-11-03T19:14:32.135Z,-1.35
2022-11-03T19:17:21.842Z,-1.66
2022-11-03T19:19:53.398Z,-1.59
2022-11-03T19:22:22.007Z,-1.59
2022-11-03T19:24:49.913Z,-1.67
2022-11-03T19:27:26.074Z,-1.77
2022-11-03T19:29:55.172Z,-1.67
2022-11-03T19:32:25.270Z,-1.60
2022-11-03T19:35:12.924Z,-1.76
2022-11-03T19:37:40.997Z,-1.75
2022-11-03T19:40:12.942Z,-1.79
2022-11-03T19:42:40.958Z,-1.83
2022-11-03T19:45:11.288Z,-1.78
2022-11-03T19:48:10.472Z,-1.56
2022-11-03T19:50:36.808Z,-1.72
2022-11-03T19:53:06.220Z,-1.55
2022-11-03T19:55:35.118Z,-1.70
2022-11-03T19:58:11.429Z,-1.58
2022-11-03T20:00:39.140Z,-1.62
2022-11-03T20:03:07.074Z,-1.47
2022-11-03T20:05:34.906Z,-1.64
2022-11-03T20:08:07.176Z,-1.67
2022-11-03T20:10:39.151Z,-1.35
2022-11-03T20:13:09.239Z,-1.51
2022-11-03T20:15:37.592Z,-1.65
2022-11-03T20:18:06.716Z,-1.75
2022-11-03T20:20:36.607Z,-1.66
2022-11-03T20:23:05.358Z,-1.69
2022-11-03T20:25:35.335Z,-1.77
2022-11-03T20:28:09.442Z,-1.59
2022-11-03T20:30:37.563Z,-1.66
2022-11-03T20:33:10.336Z,-1.45
2022-11-03T20:35:38.443Z,-1.55
2022-11-03T20:38:10.084Z,-1.70
2022-11-03T20:40:38.975Z,-1.50
2022-11-03T20:43:07.746Z,-1.67
2022-11-03T20:45:35.205Z,-1.57
2022-11-03T20:48:03.688Z,-1.60
2022-11-03T20:50:31.921Z,-1.66
2022-11-03T20:52:59.597Z,-1.87
2022-11-03T20:55:27.837Z,-1.87
2022-11-03T20:57:57.639Z,-1.83
2022-11-03T21:00:27.528Z,-1.80
2022-11-03T21:02:56.140Z,-1.83
2022-11-03T21:05:28.627Z,-1.84
2022-11-03T21:07:56.966Z,-1.80
2022-11-03T21:10:24.623Z,-1.53
2022-11-03T21:12:52.458Z,-1.79
2022-11-03T21:15:52.297Z,-1.76
2022-11-03T21:18:44.074Z,-1.72
2022-11-03T21:21:14.584Z,-1.54
2022-11-03T21:23:44.394Z,-1.66
2022-11-03T21:26:13.607Z,-1.85
2022-11-03T21:28:41.344Z,-1.81
2022-11-03T21:31:13.199Z,-1.91
2022-11-03T21:33:41.197Z,-1.94
2022-11-03T21:36:09.613Z,-1.93
2022-11-03T21:38:39.358Z,-1.86
2022-11-03T21:41:27.989Z,-1.77
2022-11-03T21:44:14.654Z,-1.79
2022-11-03T21:46:43.321Z,-1.89
2022-11-03T21:49:30.043Z,-1.84
2022-11-03T21:51:58.256Z,-1.80
2022-11-03T21:54:25.866Z,-1.76
2022-11-03T21:56:53.588Z,-1.62
2022-11-03T21:59:22.011Z,-1.58
2022-11-03T22:01:51.372Z,-1.85
2022-11-03T22:04:19.276Z,-1.97
2022-11-03T22:06:46.876Z,-1.84
2022-11-03T22:09:14.447Z,-1.96
2022-11-03T22:11:42.354Z,-1.68
2022-11-03T22:14:11.284Z,-1.65
2022-11-03T22:16:40.226Z,-1.76
2022-11-03T22:19:40.246Z,-1.79
2022-11-03T22:22:30.404Z,-1.95
2022-11-03T22:25:17.479Z,-1.97
2022-11-03T22:27:45.776Z,-1.84
2022-11-03T22:30:32.022Z,-1.97
2022-11-03T22:32:59.603Z,-2.04
2022-11-03T22:35:45.910Z,-2.00
2022-11-03T22:38:14.473Z,-1.92
2022-11-03T22:41:01.669Z,-1.74
2022-11-03T22:43:47.508Z,-1.92
2022-11-03T22:46:16.589Z,-1.92
2022-11-03T22:48:44.159Z,-1.72
2022-11-03T22:51:13.735Z,-1.80
2022-11-03T22:54:00.966Z,-1.79
2022-11-03T22:56:29.569Z,-1.76
2022-11-03T22:58:57.462Z,-1.89
2022-11-03T23:01:27.124Z,-2.05
2022-11-03T23:03:55.178Z,-1.96
2022-11-03T23:06:24.315Z,-1.96
2022-11-03T23:08:52.417Z,-2.01
2022-11-03T23:11:24.537Z,-2.00
2022-11-03T23:14:11.308Z,-1.99
2022-11-03T23:16:43.380Z,-1.93
2022-11-03T23:19:31.226Z,-1.86
2022-11-03T23:21:59.154Z,-1.90
2022-11-03T23:24:45.855Z,-1.88
2022-11-03T23:27:14.105Z,-1.93
2022-11-03T23:29:41.953Z,-2.00
2022-11-03T23:32:09.517Z,-1.90
2022-11-03T23:34:36.946Z,-1.80
2022-11-03T23:37:04.810Z,-2.03
2022-11-03T23:39:32.240Z,-1.91
2022-11-03T23:42:02.493Z,-1.97
2022-11-03T23:44:50.246Z,-1.93
2022-11-03T23:47:36.448Z,-2.05
2022-11-03T23:50:04.416Z,-1.94
2022-11-03T23:52:31.866Z,-1.84
2022-11-03T23:54:59.301Z,-1.75
2022-11-03T23:57:46.185Z,-1.70
